createdAt,value
2023-04-18T00:01:24.855Z,3.53
2023-04-18T00:04:14.648Z,3.58
2023-04-18T00:07:03.477Z,3.40
2023-04-18T00:09:51.782Z,3.65
2023-04-18T00:12:40.391Z,3.60
2023-04-18T00:15:30.272Z,4.18
2023-04-18T00:18:18.843Z,3.95
2023-04-18T00:21:08.488Z,3.50
2023-04-18T00:23:56.914Z,3.50
2023-04-18T00:26:45.274Z,3.22
2023-04-18T00:29:33.619Z,3.38
2023-04-18T00:32:23.264Z,4.22
2023-04-18T00:35:11.723Z,3.22
2023-04-18T00:38:00.058Z,4.00
2023-04-18T00:40:48.360Z,3.65
2023-04-18T00:43:37.281Z,3.00
2023-04-18T00:46:25.722Z,3.47
2023-04-18T00:49:16.562Z,3.22
2023-04-18T00:52:05.151Z,4.07
2023-04-18T00:54:53.646Z,3.45
2023-04-18T00:57:42.857Z,3.65
2023-04-18T01:00:32.400Z,3.20
2023-04-18T01:03:23.090Z,3.05
2023-04-18T01:06:12.966Z,2.88
2023-04-18T01:09:02.138Z,2.88
2023-04-18T01:11:50.505Z,3.28
2023-04-18T01:14:43.405Z,3.33
2023-04-18T01:17:34.506Z,3.08
2023-04-18T01:20:23.214Z,3.38
2023-04-18T01:23:14.320Z,3.50
2023-04-18T01:26:04.144Z,3.07
2023-04-18T01:28:52.496Z,3.33
2023-04-18T01:31:42.191Z,3.47
2023-04-18T01:34:30.608Z,3.27
2023-04-18T01:37:21.838Z,2.77
2023-04-18T01:40:12.031Z,3.27
2023-04-18T01:43:01.693Z,4.13
2023-04-18T01:45:50.067Z,2.90
2023-04-18T01:48:38.395Z,3.30
2023-04-18T01:51:28.236Z,3.17
2023-04-18T01:54:16.831Z,3.03
2023-04-18T01:57:05.480Z,3.40
2023-04-18T01:59:55.311Z,3.15
2023-04-18T02:02:44.163Z,3.40
2023-04-18T02:05:32.544Z,3.53
2023-04-18T02:08:21.140Z,3.40
2023-04-18T02:11:09.481Z,3.38
2023-04-18T02:13:59.505Z,3.23
2023-04-18T02:16:49.518Z,3.70
2023-04-18T02:19:38.766Z,3.93
2023-04-18T02:22:28.856Z,3.30
2023-04-18T02:25:18.474Z,3.33
2023-04-18T02:28:09.292Z,2.97
2023-04-18T02:30:57.635Z,3.50
2023-04-18T02:33:47.826Z,3.50
2023-04-18T02:36:36.285Z,3.17
2023-04-18T02:39:24.951Z,4.00
2023-04-18T02:42:13.304Z,3.27
2023-04-18T02:45:01.657Z,4.03
2023-04-18T02:47:55.495Z,3.47
2023-04-18T02:50:46.236Z,3.23
2023-04-18T02:53:34.903Z,3.10
2023-04-18T02:56:23.633Z,3.50
2023-04-18T02:59:30.725Z,3.20
2023-04-18T03:02:32.925Z,3.50
2023-04-18T03:05:30.481Z,4.20
2023-04-18T03:08:22.873Z,3.23
2023-04-18T03:11:11.501Z,3.23
2023-04-18T03:14:00.043Z,3.80
2023-04-18T03:16:55.729Z,3.80
2023-04-18T03:19:48.763Z,3.37
2023-04-18T03:22:39.833Z,3.60
2023-04-18T03:25:29.780Z,3.97
2023-04-18T03:28:19.557Z,3.37
2023-04-18T03:31:08.464Z,3.20
2023-04-18T03:34:00.218Z,3.87
2023-04-18T03:36:49.080Z,3.13
2023-04-18T03:39:38.564Z,3.70
2023-04-18T03:42:28.499Z,3.50
2023-04-18T03:45:17.675Z,3.23
2023-04-18T03:48:08.211Z,4.43
2023-04-18T03:51:01.216Z,3.87
2023-04-18T03:53:49.772Z,3.77
2023-04-18T03:56:39.498Z,3.90
2023-04-18T03:59:29.261Z,3.53
2023-04-18T04:02:17.707Z,3.53
2023-04-18T04:05:07.209Z,3.80
2023-04-18T04:07:56.372Z,3.80
2023-04-18T04:10:45.037Z,4.03
2023-04-18T04:13:33.453Z,3.53
2023-04-18T04:16:23.509Z,4.27
2023-04-18T04:19:14.974Z,3.70
2023-04-18T04:22:14.514Z,4.00
2023-04-18T04:25:04.587Z,4.23
2023-04-18T04:28:01.371Z,4.27
2023-04-18T04:30:50.693Z,3.97
2023-04-18T04:33:41.026Z,4.90
2023-04-18T04:36:36.629Z,4.93
2023-04-18T04:39:27.433Z,4.60
2023-04-18T04:42:28.489Z,3.53
2023-04-18T04:45:24.407Z,4.47
2023-04-18T04:48:14.036Z,4.00
2023-04-18T04:51:05.443Z,4.23
2023-04-18T04:53:53.788Z,4.60
2023-04-18T04:56:42.178Z,4.30
2023-04-18T04:59:31.518Z,4.30
2023-04-18T05:02:23.211Z,4.40
2023-04-18T05:05:11.749Z,4.80
2023-04-18T05:08:01.715Z,4.47
2023-04-18T05:10:51.066Z,3.77
2023-04-18T05:13:39.661Z,5.03
2023-04-18T05:16:28.293Z,5.00
2023-04-18T05:19:16.712Z,4.67
2023-04-18T05:22:05.112Z,5.07
2023-04-18T05:24:54.839Z,5.10
2023-04-18T05:27:44.173Z,4.60
2023-04-18T05:30:32.703Z,4.63
2023-04-18T05:33:21.640Z,3.97
2023-04-18T05:36:10.450Z,4.27
2023-04-18T05:38:58.818Z,3.70
2023-04-18T05:41:48.910Z,4.40
2023-04-18T05:44:38.021Z,4.73
2023-04-18T05:47:28.564Z,4.83
2023-04-18T05:50:17.105Z,4.93
2023-04-18T05:53:05.676Z,4.80
2023-04-18T05:55:54.200Z,5.13
2023-04-18T05:58:44.968Z,5.43
2023-04-18T06:01:33.454Z,5.37
2023-04-18T06:04:22.229Z,4.60
2023-04-18T06:07:11.156Z,5.87
2023-04-18T06:09:59.526Z,5.27
2023-04-18T06:12:47.925Z,4.73
2023-04-18T06:15:37.609Z,5.73
2023-04-18T06:18:26.078Z,5.50
2023-04-18T06:21:14.612Z,5.97
2023-04-18T06:24:03.045Z,6.37
2023-04-18T06:26:51.876Z,6.23
2023-04-18T06:29:40.439Z,5.67
2023-04-18T06:32:30.261Z,4.83
2023-04-18T06:35:18.829Z,5.60
2023-04-18T06:38:07.396Z,5.63
2023-04-18T06:40:55.744Z,6.43
2023-04-18T06:43:55.740Z,6.33
2023-04-18T06:46:50.973Z,5.30
2023-04-18T06:49:40.814Z,6.17
2023-04-18T06:52:29.275Z,4.87
2023-04-18T06:55:17.703Z,6.70
2023-04-18T06:58:06.077Z,4.80
2023-04-18T07:00:54.555Z,5.03
2023-04-18T07:03:42.982Z,5.43
2023-04-18T07:06:33.321Z,5.10
2023-04-18T07:09:22.653Z,4.70
2023-04-18T07:12:11.194Z,5.97
2023-04-18T07:14:59.713Z,5.47
2023-04-18T07:17:48.570Z,5.10
2023-04-18T07:20:37.009Z,6.00
2023-04-18T07:23:26.825Z,5.50
2023-04-18T07:26:15.364Z,4.63
2023-04-18T07:29:03.915Z,5.43
2023-04-18T07:31:52.963Z,5.87
2023-04-18T07:34:41.366Z,5.37
2023-04-18T07:37:29.918Z,6.90
2023-04-18T07:40:19.955Z,6.30
2023-04-18T07:43:08.628Z,5.47
2023-04-18T07:45:57.179Z,6.37
2023-04-18T07:48:46.178Z,5.80
2023-04-18T07:51:34.969Z,6.00
2023-04-18T07:54:23.471Z,6.10
2023-04-18T07:57:13.187Z,6.00
2023-04-18T08:00:01.590Z,6.43
2023-04-18T08:03:01.557Z,6.00
2023-04-18T08:05:51.410Z,6.93
2023-04-18T08:08:39.959Z,7.17
2023-04-18T08:11:28.546Z,6.53
2023-04-18T08:14:18.297Z,6.17
2023-04-18T08:17:06.908Z,4.73
2023-04-18T08:19:55.676Z,5.23
2023-04-18T08:22:57.486Z,7.07
2023-04-18T08:25:52.466Z,6.13
2023-04-18T08:28:41.090Z,6.90
2023-04-18T08:31:31.662Z,7.17
2023-04-18T08:34:20.453Z,6.43
2023-04-18T08:37:08.946Z,7.00
2023-04-18T08:39:57.370Z,6.43
2023-04-18T08:42:46.241Z,6.37
2023-04-18T08:45:34.803Z,6.47
2023-04-18T08:48:24.697Z,8.10
2023-04-18T08:51:13.088Z,6.97
2023-04-18T08:54:04.394Z,6.40
2023-04-18T08:57:06.508Z,7.25
2023-04-18T08:59:55.277Z,6.27
2023-04-18T09:02:45.011Z,7.28
2023-04-18T09:05:35.582Z,7.03
2023-04-18T09:08:25.211Z,6.97
2023-04-18T09:11:26.163Z,6.97
2023-04-18T09:14:26.021Z,6.93
2023-04-18T09:17:18.221Z,7.27
2023-04-18T09:20:10.252Z,6.67
2023-04-18T09:23:00.665Z,7.22
2023-04-18T09:25:52.271Z,7.13
2023-04-18T09:28:41.534Z,7.03
2023-04-18T09:31:30.311Z,6.80
2023-04-18T09:34:24.946Z,7.03
2023-04-18T09:37:14.909Z,7.07
2023-04-18T09:40:18.849Z,7.68
2023-04-18T09:43:20.715Z,8.68
2023-04-18T09:46:10.064Z,8.68
2023-04-18T09:48:58.452Z,7.32
2023-04-18T09:51:47.295Z,6.78
2023-04-18T09:54:39.993Z,7.90
2023-04-18T09:57:32.654Z,7.50
2023-04-18T10:00:25.334Z,8.07
2023-04-18T10:03:18.672Z,8.98
2023-04-18T10:06:08.792Z,7.60
2023-04-18T10:08:58.207Z,9.15
2023-04-18T10:11:47.455Z,8.57
2023-04-18T10:14:40.263Z,7.85
2023-04-18T10:17:29.784Z,9.25
2023-04-18T10:20:22.693Z,8.65
2023-04-18T10:23:36.924Z,7.97
2023-04-18T10:26:50.308Z,8.18
2023-04-18T10:29:49.924Z,9.45
2023-04-18T10:32:38.352Z,8.60
2023-04-18T10:35:27.919Z,9.70
2023-04-18T10:38:18.043Z,9.43
2023-04-18T10:41:22.325Z,9.73
2023-04-18T10:44:30.276Z,9.60
2023-04-18T10:47:27.799Z,10.05
2023-04-18T10:50:19.079Z,9.05
2023-04-18T10:53:07.560Z,10.27
2023-04-18T10:55:58.196Z,10.80
2023-04-18T10:58:54.117Z,10.07
2023-04-18T11:01:48.657Z,9.55
2023-04-18T11:04:37.763Z,10.32
2023-04-18T11:07:37.204Z,8.82
2023-04-18T11:10:28.068Z,9.73
2023-04-18T11:13:16.516Z,10.25
2023-04-18T11:16:05.718Z,10.65
2023-04-18T11:18:55.927Z,9.80
2023-04-18T11:21:44.493Z,10.18
2023-04-18T11:24:32.955Z,9.40
2023-04-18T11:27:26.737Z,9.52
2023-04-18T11:30:16.717Z,9.15
2023-04-18T11:33:08.412Z,8.77
2023-04-18T11:35:59.887Z,8.90
2023-04-18T11:38:48.463Z,9.52
2023-04-18T11:41:36.915Z,7.28
2023-04-18T11:44:25.952Z,9.23
2023-04-18T11:47:28.949Z,11.35
2023-04-18T11:50:17.554Z,9.50
2023-04-18T11:53:07.349Z,9.85
2023-04-18T11:55:57.286Z,9.15
2023-04-18T11:58:46.138Z,9.88
2023-04-18T12:01:34.693Z,9.35
2023-04-18T12:04:23.710Z,8.48
2023-04-18T12:07:12.225Z,10.80
2023-04-18T12:10:02.146Z,9.15
2023-04-18T12:12:52.227Z,9.85
2023-04-18T12:15:44.708Z,9.25
2023-04-18T12:18:33.362Z,9.82
2023-04-18T12:21:21.828Z,9.75
2023-04-18T12:24:15.928Z,9.93
2023-04-18T12:27:06.066Z,10.45
2023-04-18T12:29:54.484Z,10.00
2023-04-18T12:32:44.890Z,10.07
2023-04-18T12:35:33.935Z,7.45
2023-04-18T12:38:23.501Z,9.65
2023-04-18T12:41:12.056Z,9.02
2023-04-18T12:44:01.930Z,9.52
2023-04-18T12:46:50.388Z,9.57
2023-04-18T12:49:39.002Z,8.32
2023-04-18T12:52:27.568Z,9.95
2023-04-18T12:55:16.638Z,9.23
2023-04-18T12:58:05.170Z,9.15
2023-04-18T13:00:55.871Z,9.98
2023-04-18T13:03:45.567Z,8.82
2023-04-18T13:06:37.649Z,10.10
2023-04-18T13:09:26.924Z,8.68
2023-04-18T13:12:15.600Z,8.23
2023-04-18T13:15:04.192Z,9.10
2023-04-18T13:17:54.182Z,8.75
2023-04-18T13:20:43.938Z,8.38
2023-04-18T13:23:32.595Z,9.77
2023-04-18T13:26:21.405Z,8.93
2023-04-18T13:29:09.818Z,9.43
2023-04-18T13:31:58.250Z,8.82
2023-04-18T13:34:49.174Z,10.40
2023-04-18T13:37:38.227Z,9.82
2023-04-18T13:40:26.645Z,9.65
2023-04-18T13:43:15.442Z,8.27
2023-04-18T13:46:04.033Z,10.27
2023-04-18T13:48:52.491Z,8.77
2023-04-18T13:51:42.541Z,8.35
2023-04-18T13:54:33.296Z,10.30
2023-04-18T13:57:22.280Z,9.02
2023-04-18T14:00:13.953Z,8.95
2023-04-18T14:03:02.625Z,7.88
2023-04-18T14:05:51.304Z,8.77
2023-04-18T14:08:41.212Z,8.07
2023-04-18T14:11:29.691Z,7.38
2023-04-18T14:14:18.361Z,8.90
2023-04-18T14:17:06.986Z,8.25
2023-04-18T14:19:55.455Z,8.65
2023-04-18T14:22:43.934Z,8.07
2023-04-18T14:25:34.579Z,9.35
2023-04-18T14:28:24.865Z,9.85
2023-04-18T14:31:14.003Z,6.95
2023-04-18T14:34:10.192Z,8.70
2023-04-18T14:36:58.682Z,8.07
2023-04-18T14:39:47.471Z,8.82
2023-04-18T14:42:37.754Z,8.55
2023-04-18T14:45:26.199Z,7.50
2023-04-18T14:48:16.378Z,7.32
2023-04-18T14:51:05.296Z,8.55
2023-04-18T14:53:53.942Z,7.43
2023-04-18T14:56:42.519Z,9.18
2023-04-18T14:59:32.414Z,7.45
2023-04-18T15:02:21.121Z,8.60
2023-04-18T15:05:10.890Z,8.80
2023-04-18T15:07:59.525Z,7.55
2023-04-18T15:10:47.907Z,7.35
2023-04-18T15:13:36.614Z,8.57
2023-04-18T15:16:51.360Z,8.40
2023-04-18T15:19:39.867Z,7.57
2023-04-18T15:22:28.606Z,8.43
2023-04-18T15:25:17.548Z,7.22
2023-04-18T15:28:07.133Z,8.00
2023-04-18T15:30:56.236Z,8.02
2023-04-18T15:33:46.544Z,7.45
2023-04-18T15:36:35.932Z,7.35
2023-04-18T15:39:32.564Z,7.35
2023-04-18T15:42:21.564Z,6.72
2023-04-18T15:45:35.328Z,6.47
2023-04-18T16:04:21.065Z,7.72
2023-04-18T16:07:09.813Z,7.13
2023-04-18T16:10:03.645Z,6.13
2023-04-18T16:12:52.303Z,6.30
2023-04-18T16:15:41.590Z,7.97
2023-04-18T16:18:30.226Z,7.47
2023-04-18T16:21:20.316Z,7.57
2023-04-18T16:24:09.415Z,6.93
2023-04-18T16:26:58.494Z,6.88
2023-04-18T16:29:47.209Z,7.00
2023-04-18T16:32:36.193Z,6.97
2023-04-18T16:35:24.996Z,6.07
2023-04-18T16:38:14.961Z,7.13
2023-04-18T16:41:03.667Z,7.13
2023-04-18T16:43:52.316Z,6.40
2023-04-18T16:46:41.122Z,6.60
2023-04-18T16:49:29.614Z,6.60
2023-04-18T16:52:18.338Z,6.75
2023-04-18T16:55:09.617Z,6.88
2023-04-18T16:57:58.153Z,6.72
2023-04-18T17:00:51.186Z,6.00
2023-04-18T17:03:39.998Z,6.40
2023-04-18T17:06:31.245Z,6.55
2023-04-18T17:09:29.413Z,6.38
2023-04-18T17:12:19.583Z,5.80
2023-04-18T17:15:09.273Z,5.85
2023-04-18T17:18:00.310Z,6.40
2023-04-18T17:20:49.074Z,6.38
2023-04-18T17:23:38.392Z,5.70
2023-04-18T17:26:27.762Z,7.25
2023-04-18T17:29:18.786Z,6.50
2023-04-18T17:32:07.585Z,5.43
2023-04-18T17:34:56.414Z,5.82
2023-04-18T17:37:45.167Z,5.90
2023-04-18T17:40:35.544Z,5.90
2023-04-18T17:43:24.191Z,6.00
2023-04-18T17:46:15.484Z,5.63
2023-04-18T17:49:04.719Z,5.47
2023-04-18T17:51:53.523Z,5.88
2023-04-18T17:54:42.051Z,5.65
2023-04-18T17:57:33.442Z,6.05
2023-04-18T18:00:22.392Z,6.00
2023-04-18T18:03:18.175Z,5.55
2023-04-18T18:06:07.020Z,5.22
2023-04-18T18:08:55.927Z,6.07
2023-04-18T18:11:44.780Z,5.70
2023-04-18T18:14:33.553Z,5.72
2023-04-18T18:17:22.208Z,5.88
2023-04-18T18:20:13.021Z,5.35
2023-04-18T18:23:02.805Z,6.40
2023-04-18T18:25:52.131Z,5.32
2023-04-18T18:28:40.644Z,5.07
2023-04-18T18:31:29.202Z,6.28
2023-04-18T18:34:18.054Z,5.25
2023-04-18T18:37:08.186Z,5.60
2023-04-18T18:39:57.190Z,5.25
2023-04-18T18:42:54.588Z,5.60
2023-04-18T18:45:50.298Z,5.88
2023-04-18T18:48:39.120Z,6.07
2023-04-18T18:51:27.855Z,5.10
2023-04-18T18:54:18.080Z,5.60
2023-04-18T18:57:37.530Z,5.78
2023-04-18T19:00:29.487Z,5.30
2023-04-18T19:03:22.032Z,5.65
2023-04-18T19:06:17.858Z,5.68
2023-04-18T19:10:48.438Z,6.25
2023-04-18T19:14:37.956Z,5.97
2023-04-18T19:21:28.907Z,5.70
2023-04-18T19:24:22.816Z,5.65
2023-04-18T19:27:17.496Z,6.25
2023-04-18T19:30:10.662Z,6.28
2023-04-18T19:33:05.110Z,5.90
2023-04-18T19:35:54.213Z,5.97
2023-04-18T19:38:47.690Z,6.30
2023-04-18T19:41:38.850Z,6.15
2023-04-18T19:44:40.565Z,5.40
2023-04-18T19:47:38.424Z,6.50
2023-04-18T19:50:35.977Z,5.60
2023-04-18T19:53:27.664Z,6.90
2023-04-18T19:56:32.760Z,5.95
2023-04-18T19:59:56.253Z,6.10
2023-04-18T20:02:46.528Z,6.38
2023-04-18T20:05:35.411Z,5.68
2023-04-18T20:08:28.521Z,6.00
2023-04-18T20:11:17.059Z,5.97
2023-04-18T20:14:06.128Z,5.68
2023-04-18T20:16:55.964Z,5.53
2023-04-18T20:19:47.171Z,6.32
2023-04-18T20:22:35.999Z,5.93
2023-04-18T20:25:24.757Z,6.57
2023-04-18T20:28:13.364Z,7.03
2023-04-18T20:31:03.708Z,6.80
2023-04-18T20:33:52.256Z,6.97
2023-04-18T20:36:42.354Z,6.05
2023-04-18T20:39:31.525Z,6.75
2023-04-18T20:42:20.057Z,6.18
2023-04-18T20:45:11.019Z,6.90
2023-04-18T20:48:01.617Z,6.07
2023-04-18T20:50:51.976Z,6.70
2023-04-18T20:53:41.883Z,7.35
2023-04-18T20:56:30.709Z,6.28
2023-04-18T20:59:20.235Z,7.22
2023-04-18T21:02:09.585Z,6.93
2023-04-18T21:05:00.569Z,7.10
2023-04-18T21:07:49.273Z,6.20
2023-04-18T21:10:39.668Z,6.35
2023-04-18T21:13:28.204Z,6.53
2023-04-18T21:16:16.900Z,7.13
2023-04-18T21:19:05.532Z,6.45
2023-04-18T21:21:54.136Z,7.05
2023-04-18T21:24:42.762Z,6.70
2023-04-18T21:27:32.976Z,7.18
2023-04-18T21:30:22.619Z,7.88
2023-04-18T21:33:11.119Z,6.80
2023-04-18T21:35:59.617Z,7.43
2023-04-18T21:38:48.179Z,5.75
2023-04-18T21:41:36.698Z,6.80
2023-04-18T21:44:26.578Z,6.70
2023-04-18T21:47:15.106Z,6.82
2023-04-18T21:50:04.930Z,6.60
2023-04-18T21:52:53.422Z,6.85
2023-04-18T21:55:41.891Z,7.25
2023-04-18T21:58:31.479Z,6.93
2023-04-18T22:01:21.663Z,7.32
2023-04-18T22:04:12.265Z,7.40
2023-04-18T22:07:00.932Z,6.45
2023-04-18T22:09:51.145Z,7.03
2023-04-18T22:12:39.815Z,6.50
2023-04-18T22:15:28.286Z,7.35
2023-04-18T22:18:19.190Z,7.35
2023-04-18T22:21:09.448Z,7.20
2023-04-18T22:23:57.913Z,6.80
2023-04-18T22:26:46.427Z,6.55
2023-04-18T22:29:34.913Z,6.78
2023-04-18T22:32:23.410Z,7.25
2023-04-18T22:35:13.280Z,7.22
2023-04-18T22:38:01.922Z,7.22
2023-04-18T22:40:50.558Z,6.65
2023-04-18T22:43:39.030Z,7.78
2023-04-18T22:46:27.966Z,7.70
2023-04-18T22:49:17.850Z,6.47
2023-04-18T22:52:08.192Z,6.82
2023-04-18T22:54:56.830Z,6.53
2023-04-18T22:57:45.297Z,6.57
2023-04-18T23:00:34.153Z,6.65
2023-04-18T23:03:22.922Z,6.65
2023-04-18T23:06:11.700Z,7.03
2023-04-18T23:09:01.710Z,7.60
2023-04-18T23:11:50.240Z,6.25
2023-04-18T23:14:38.844Z,6.22
2023-04-18T23:17:27.340Z,5.78
2023-04-18T23:20:16.430Z,7.25
2023-04-18T23:23:04.944Z,6.80
2023-04-18T23:25:54.784Z,7.22
2023-04-18T23:28:43.414Z,7.03
2023-04-18T23:31:32.891Z,6.57
2023-04-18T23:34:21.715Z,6.15
2023-04-18T23:37:10.337Z,7.38
2023-04-18T23:39:58.905Z,6.25
2023-04-18T23:42:48.707Z,6.47
2023-04-18T23:45:37.569Z,6.90
2023-04-18T23:48:26.137Z,5.78
2023-04-18T23:51:14.674Z,6.65
2023-04-18T23:54:03.194Z,6.20
2023-04-18T23:56:51.763Z,6.20
2023-04-18T23:59:41.628Z,6.18
